Time;durP1;ratioP1;P1;durP2;ratioP2;P2;SDS_P1;SDS_P2;PMS_P1;PMS_P2;Temp;Humidity;BMP_temperature;BMP_pressure;BME280_temperature;BME280_humidity;BME280_pressure;Samples;Min_cycle;Max_cycle;Signal;HPM_P1;HPM_P2
2022/01/15 00:01:46;;;;;;;15.65;8.30;;;9.30;84.30;;;;;;6157538;22;88216;-70
2022/01/15 00:04:14;;;;;;;20.33;8.73;;;9.20;84.40;;;;;;6131550;22;88651;-70
2022/01/15 00:06:41;;;;;;;14.32;7.53;;;9.20;84.40;;;;;;6158866;22;88416;-70
2022/01/15 00:09:08;;;;;;;27.60;9.50;;;9.20;84.40;;;;;;6157739;22;87896;-64
2022/01/15 00:11:35;;;;;;;27.55;9.50;;;9.20;84.50;;;;;;6157727;22;88034;-64
2022/01/15 00:14:14;;;;;;;24.35;9.15;;;9.20;84.50;;;;;;6156523;22;89376;-65
2022/01/15 00:16:56;;;;;;;17.92;8.52;;;9.20;84.40;;;;;;6157449;22;89481;-65
2022/01/15 00:19:43;;;;;;;16.70;8.30;;;9.20;84.50;;;;;;6157943;22;88472;-71
2022/01/15 00:22:19;;;;;;;13.45;8.05;;;9.20;84.50;;;;;;6157744;22;88098;-71
2022/01/15 00:24:46;;;;;;;16.60;8.02;;;9.20;84.40;;;;;;6157629;22;88593;-71
2022/01/15 00:27:14;;;;;;;17.00;8.07;;;9.20;84.50;;;;;;6130820;22;89732;-70
2022/01/15 00:29:41;;;;;;;17.77;8.38;;;9.20;84.50;;;;;;6130336;22;98907;-65
2022/01/15 00:32:08;;;;;;;16.95;9.35;;;9.20;84.70;;;;;;6157930;22;88098;-65
2022/01/15 00:34:35;;;;;;;17.60;9.23;;;9.20;84.40;;;;;;6131134;22;88596;-65
2022/01/15 00:37:02;;;;;;;27.80;13.18;;;9.30;84.50;;;;;;6157278;22;88621;-65
2022/01/15 00:39:29;;;;;;;22.80;10.05;;;9.30;84.40;;;;;;6129852;22;89113;-65
2022/01/15 00:41:56;;;;;;;16.65;8.65;;;9.20;84.30;;;;;;6156164;22;92747;-70
2022/01/15 00:44:23;;;;;;;18.70;7.68;;;9.20;84.40;;;;;;6157544;22;89134;-70
2022/01/15 00:46:50;;;;;;;20.13;8.50;;;9.30;84.30;;;;;;6157338;22;88171;-70
2022/01/15 00:49:17;;;;;;;12.40;6.40;;;9.30;84.30;;;;;;6157826;22;88243;-71
2022/01/15 00:51:44;;;;;;;16.42;7.45;;;9.30;84.20;;;;;;6157570;22;88209;-70
2022/01/15 00:54:11;;;;;;;22.67;8.52;;;9.30;84.20;;;;;;6156978;22;89822;-70
2022/01/15 00:56:38;;;;;;;12.80;6.55;;;9.30;84.70;;;;;;6131226;22;88421;-70
2022/01/15 00:59:05;;;;;;;16.23;7.38;;;9.30;84.20;;;;;;6130208;22;87912;-70
2022/01/15 01:01:32;;;;;;;12.93;6.57;;;9.20;84.20;;;;;;6130478;22;89695;-71
2022/01/15 01:03:59;;;;;;;16.00;7.70;;;9.20;84.20;;;;;;6156611;22;89382;-70
2022/01/15 01:06:26;;;;;;;15.45;7.20;;;9.20;84.30;;;;;;6157322;22;89255;-70
2022/01/15 01:08:53;;;;;;;16.73;7.72;;;9.20;84.40;;;;;;6157328;22;88070;-70
2022/01/15 01:11:30;;;;;;;13.30;7.28;;;9.20;84.50;;;;;;6157204;22;88558;-70
2022/01/15 01:24:47;;;;;;;10.98;5.95;;;9.20;84.50;;;;;;6157693;22;88638;-65
2022/01/15 01:27:40;;;;;;;10.10;6.28;;;9.20;84.40;;;;;;6157017;22;91000;-65
2022/01/15 01:30:17;;;;;;;10.02;5.82;;;9.20;84.40;;;;;;6156726;22;88614;-65
2022/01/15 01:35:32;;;;;;;7.53;5.10;;;9.20;84.50;;;;;;6156749;22;88580;-65
2022/01/15 01:38:08;;;;;;;8.63;5.50;;;9.20;84.40;;;;;;6156811;22;89936;-65
2022/01/15 01:40:41;;;;;;;8.13;5.38;;;9.20;84.40;;;;;;6157556;22;87889;-65
2022/01/15 01:45:53;;;;;;;12.77;6.72;;;9.20;84.50;;;;;;6157267;22;88654;-66
2022/01/15 01:48:21;;;;;;;12.13;6.32;;;9.20;84.40;;;;;;6157461;22;89814;-70
2022/01/15 01:50:47;;;;;;;11.63;6.43;;;9.20;84.30;;;;;;6157380;22;88064;-70
2022/01/15 01:53:15;;;;;;;9.05;5.22;;;9.20;84.20;;;;;;6156909;22;88126;-70
2022/01/15 01:55:42;;;;;;;8.02;5.50;;;9.20;84.20;;;;;;6156679;22;89512;-70
2022/01/15 01:58:09;;;;;;;8.13;5.63;;;9.20;84.20;;;;;;6129915;22;90324;-70
2022/01/15 02:00:36;;;;;;;9.05;6.18;;;9.20;84.10;;;;;;6130390;22;87971;-71
2022/01/15 02:03:03;;;;;;;9.15;6.07;;;9.20;84.00;;;;;;6129869;22;89218;-70
2022/01/15 02:05:30;;;;;;;11.15;6.43;;;9.20;84.00;;;;;;6157058;22;88519;-72
2022/01/15 02:07:57;;;;;;;10.98;5.90;;;9.20;84.20;;;;;;6156880;22;93125;-71
2022/01/15 02:10:24;;;;;;;12.77;7.05;;;9.20;84.10;;;;;;6156992;22;88021;-71
2022/01/15 02:12:51;;;;;;;12.35;6.97;;;9.10;84.40;;;;;;6130519;22;88104;-70
2022/01/15 02:15:21;;;;;;;10.18;6.85;;;9.10;84.50;;;;;;6129861;22;89718;-71
2022/01/15 02:17:49;;;;;;;9.40;6.63;;;9.10;84.30;;;;;;6156757;22;88005;-71
2022/01/15 02:25:52;;;;;;;9.13;5.38;;;9.00;84.20;;;;;;6156960;22;88572;-71
2022/01/15 02:28:30;;;;;;;8.82;5.53;;;9.00;84.40;;;;;;6156614;22;88399;-71
2022/01/15 02:31:22;;;;;;;7.68;4.97;;;9.00;84.60;;;;;;6156925;22;88454;-70
2022/01/15 02:33:50;;;;;;;7.20;4.50;;;8.90;84.60;;;;;;6156661;22;88148;-70
2022/01/15 02:36:20;;;;;;;7.72;4.57;;;8.80;84.40;;;;;;6156365;22;88702;-70
2022/01/15 02:38:47;;;;;;;10.60;5.10;;;8.80;85.20;;;;;;6130882;22;88331;-70
2022/01/15 02:41:23;;;;;;;5.15;3.53;;;8.80;84.60;;;;;;6156571;22;87971;-70
2022/01/15 02:43:50;;;;;;;7.68;4.28;;;8.80;84.60;;;;;;6129942;22;89230;-71
2022/01/15 02:46:46;;;;;;;6.43;3.60;;;8.80;84.80;;;;;;6155889;22;89504;-70
2022/01/15 02:49:10;;;;;;;7.85;3.92;;;8.80;84.70;;;;;;6157559;22;89229;-70
2022/01/15 02:51:37;;;;;;;5.57;3.75;;;8.80;84.70;;;;;;6131673;22;88103;-70
2022/01/15 02:54:06;;;;;;;4.75;3.45;;;8.80;84.40;;;;;;6158083;22;89681;-70
2022/01/15 02:56:41;;;;;;;5.60;3.53;;;8.80;84.40;;;;;;6158083;22;88574;-70
2022/01/15 02:59:18;;;;;;;6.80;3.72;;;8.80;84.50;;;;;;6157759;22;88413;-71
2022/01/15 03:01:45;;;;;;;6.55;3.70;;;8.70;84.70;;;;;;6158237;22;87976;-70
2022/01/15 03:04:12;;;;;;;6.97;3.90;;;8.70;84.80;;;;;;6130976;22;96423;-70
2022/01/15 03:06:39;;;;;;;5.00;3.63;;;8.70;84.70;;;;;;6158097;22;88544;-70
2022/01/15 03:09:06;;;;;;;6.10;3.50;;;8.80;84.50;;;;;;6158289;22;88104;-70
2022/01/15 03:11:33;;;;;;;4.43;3.67;;;8.80;84.30;;;;;;6158012;22;88752;-70
2022/01/15 03:14:01;;;;;;;6.75;3.63;;;8.80;84.30;;;;;;6157917;22;88293;-71
2022/01/15 03:16:28;;;;;;;5.35;3.53;;;8.80;84.30;;;;;;6157914;22;88797;-71
2022/01/15 03:18:55;;;;;;;5.03;3.58;;;8.80;84.20;;;;;;6157915;22;88302;-71
2022/01/15 03:21:22;;;;;;;7.13;3.83;;;8.80;84.00;;;;;;6130973;22;87973;-70
2022/01/15 03:23:49;;;;;;;5.32;3.60;;;8.80;83.90;;;;;;6157759;22;92367;-70
2022/01/15 03:26:16;;;;;;;7.32;3.22;;;8.80;83.80;;;;;;6157534;22;88722;-70
2022/01/15 03:28:43;;;;;;;8.18;3.53;;;8.80;83.90;;;;;;6158236;22;88333;-70
2022/01/15 03:31:11;;;;;;;5.13;3.60;;;8.80;84.10;;;;;;6130948;22;90137;-71
2022/01/15 03:33:38;;;;;;;6.25;4.05;;;8.80;84.20;;;;;;6131002;22;89092;-70
2022/01/15 03:36:07;;;;;;;7.68;3.92;;;8.80;84.10;;;;;;6157454;22;91439;-70
2022/01/15 03:38:34;;;;;;;4.47;3.13;;;8.80;83.90;;;;;;6157350;22;89012;-70
2022/01/15 03:41:02;;;;;;;6.05;3.75;;;8.80;83.80;;;;;;6131266;22;88543;-70
2022/01/15 03:43:29;;;;;;;7.55;3.90;;;8.80;83.90;;;;;;6130591;22;89314;-70
2022/01/15 03:45:56;;;;;;;7.55;3.85;;;8.80;84.00;;;;;;6130586;22;93760;-70
2022/01/15 03:48:24;;;;;;;8.77;3.97;;;8.70;83.90;;;;;;6157630;22;88899;-70
2022/01/15 03:50:51;;;;;;;6.15;3.83;;;8.70;83.80;;;;;;6157775;22;88052;-70
2022/01/15 03:53:20;;;;;;;7.28;3.42;;;8.70;83.90;;;;;;6131649;22;88090;-71
2022/01/15 03:55:47;;;;;;;6.72;3.80;;;8.70;84.10;;;;;;6157689;22;88535;-71
2022/01/15 03:58:14;;;;;;;3.67;2.90;;;8.70;84.20;;;;;;6157377;22;88324;-72
2022/01/15 04:00:41;;;;;;;5.57;3.05;;;8.60;84.20;;;;;;6156315;22;107248;-71
2022/01/15 04:03:08;;;;;;;5.85;3.08;;;8.70;84.30;;;;;;6157456;22;88216;-70
2022/01/15 04:05:35;;;;;;;4.35;3.20;;;8.60;84.20;;;;;;6130679;22;88646;-70
2022/01/15 04:08:02;;;;;;;5.25;2.83;;;8.60;84.50;;;;;;6157623;22;88398;-70
2022/01/15 04:10:29;;;;;;;6.22;3.05;;;8.60;84.50;;;;;;6156688;22;99109;-70
2022/01/15 04:12:56;;;;;;;3.83;2.40;;;8.60;84.50;;;;;;6157488;22;89320;-70
2022/01/15 04:15:25;;;;;;;4.55;3.13;;;8.60;84.40;;;;;;6157352;22;90106;-70
2022/01/15 04:17:52;;;;;;;3.63;2.83;;;8.60;84.30;;;;;;6158107;22;88419;-70
2022/01/15 04:20:22;;;;;;;5.15;3.05;;;8.60;84.40;;;;;;6157603;22;87944;-70
2022/01/15 04:22:51;;;;;;;4.80;3.03;;;8.70;84.50;;;;;;6157552;22;92960;-70
2022/01/15 04:25:18;;;;;;;6.88;4.32;;;8.70;84.60;;;;;;6156978;22;89292;-71
2022/01/15 04:27:46;;;;;;;6.13;3.85;;;8.70;84.60;;;;;;6157922;22;88965;-71
2022/01/15 04:30:14;;;;;;;5.75;3.70;;;8.70;84.40;;;;;;6157973;22;87947;-65
2022/01/15 04:32:41;;;;;;;7.25;3.67;;;8.70;84.40;;;;;;6157226;22;89227;-65
2022/01/15 04:35:09;;;;;;;6.60;3.92;;;8.70;84.40;;;;;;6157633;22;88552;-65
2022/01/15 04:37:44;;;;;;;4.65;3.60;;;8.70;84.40;;;;;;6130267;22;89699;-65
2022/01/15 04:40:12;;;;;;;7.05;4.70;;;8.70;84.40;;;;;;6157698;22;87929;-65
2022/01/15 04:42:39;;;;;;;7.32;3.85;;;8.70;84.20;;;;;;6156931;22;105984;-65
2022/01/15 04:45:09;;;;;;;6.28;4.07;;;8.70;84.30;;;;;;6130798;22;88884;-66
2022/01/15 04:47:37;;;;;;;5.70;3.88;;;8.70;84.40;;;;;;6157294;22;88996;-65
2022/01/15 04:50:06;;;;;;;6.55;3.60;;;8.70;84.40;;;;;;6157244;22;88661;-65
2022/01/15 04:52:34;;;;;;;5.43;3.72;;;8.70;84.50;;;;;;6130286;22;88251;-65
2022/01/15 04:55:02;;;;;;;5.45;4.07;;;8.70;84.50;;;;;;6157493;22;88816;-65
2022/01/15 04:57:29;;;;;;;4.95;3.60;;;8.70;84.50;;;;;;6157181;22;88458;-65
2022/01/15 04:59:56;;;;;;;4.55;3.15;;;8.70;84.40;;;;;;6157411;22;87982;-65
2022/01/15 05:02:23;;;;;;;6.50;3.40;;;8.70;84.40;;;;;;6157446;22;88311;-65
2022/01/15 05:04:50;;;;;;;6.60;3.53;;;8.70;84.30;;;;;;6157178;22;91964;-65
2022/01/15 05:07:17;;;;;;;5.78;3.67;;;8.70;84.20;;;;;;6157584;22;88478;-65
2022/01/15 05:09:44;;;;;;;5.15;3.70;;;8.70;84.30;;;;;;6156800;22;87973;-65
2022/01/15 05:12:40;;;;;;;4.20;3.40;;;8.70;84.20;;;;;;6157016;22;87980;-65
2022/01/15 05:14:59;;;;;;;5.28;3.17;;;8.80;84.10;;;;;;6156810;22;89310;-65
2022/01/15 05:17:26;;;;;;;6.13;3.50;;;8.70;84.20;;;;;;6157354;22;87931;-65
2022/01/15 05:19:53;;;;;;;6.22;3.55;;;8.70;84.60;;;;;;6157326;22;87944;-65
2022/01/15 05:22:20;;;;;;;6.43;4.10;;;8.70;84.50;;;;;;6157385;22;88094;-65
2022/01/15 05:24:47;;;;;;;6.32;4.38;;;8.70;84.40;;;;;;6157016;22;88787;-65
2022/01/15 05:27:14;;;;;;;5.05;3.28;;;8.70;84.20;;;;;;6157478;22;88453;-65
2022/01/15 05:29:41;;;;;;;4.30;3.03;;;8.70;84.20;;;;;;6156906;22;88269;-65
2022/01/15 05:32:08;;;;;;;4.95;3.10;;;8.70;84.10;;;;;;6157713;22;88173;-65
2022/01/15 05:34:38;;;;;;;7.18;3.38;;;8.70;84.00;;;;;;6156958;22;90417;-65
2022/01/15 05:37:05;;;;;;;5.68;3.53;;;8.70;84.50;;;;;;6157543;22;88429;-65
2022/01/15 05:39:32;;;;;;;5.00;3.35;;;8.80;83.80;;;;;;6156845;22;89226;-65
2022/01/15 05:41:59;;;;;;;3.78;3.08;;;8.80;83.80;;;;;;6157646;22;88454;-65
2022/01/15 05:44:26;;;;;;;6.50;3.38;;;8.80;83.80;;;;;;6157347;22;88666;-65
2022/01/15 05:46:54;;;;;;;5.38;3.38;;;8.80;83.80;;;;;;6105661;22;89438;-65
2022/01/15 05:49:20;;;;;;;4.38;2.95;;;8.80;83.70;;;;;;6157477;22;88154;-65
2022/01/15 05:51:48;;;;;;;5.43;3.45;;;8.80;83.70;;;;;;6130271;22;88186;-65
2022/01/15 05:54:15;;;;;;;4.13;3.30;;;8.80;83.60;;;;;;6156972;22;88700;-65
2022/01/15 05:56:42;;;;;;;5.10;3.25;;;8.80;83.50;;;;;;6157284;22;88413;-65
2022/01/15 05:59:09;;;;;;;4.30;3.10;;;8.80;84.10;;;;;;6157230;22;88262;-65
2022/01/15 06:01:37;;;;;;;4.38;3.05;;;8.80;83.30;;;;;;6156669;22;88016;-65
2022/01/15 06:04:05;;;;;;;4.20;2.95;;;8.80;83.20;;;;;;6156546;22;89232;-65
2022/01/15 06:06:32;;;;;;;3.83;3.30;;;8.80;83.20;;;;;;6156581;22;89252;-65
2022/01/15 06:08:59;;;;;;;4.10;3.10;;;8.80;83.10;;;;;;6157062;22;88250;-65
2022/01/15 06:11:27;;;;;;;3.30;2.83;;;8.80;83.00;;;;;;6157089;22;87990;-65
2022/01/15 06:13:55;;;;;;;2.83;2.50;;;8.80;82.90;;;;;;6156189;22;88650;-65
2022/01/15 06:16:22;;;;;;;3.85;2.40;;;8.80;82.70;;;;;;6157680;22;88412;-65
2022/01/15 06:18:49;;;;;;;2.72;2.42;;;8.80;82.30;;;;;;6157316;22;88483;-65
2022/01/15 06:21:17;;;;;;;3.92;2.65;;;8.80;82.20;;;;;;6157484;22;92238;-65
2022/01/15 06:23:44;;;;;;;3.28;2.58;;;8.80;82.40;;;;;;6156625;22;88546;-70
2022/01/15 06:26:11;;;;;;;2.97;2.60;;;8.80;82.40;;;;;;6156964;22;88017;-70
2022/01/15 06:28:38;;;;;;;3.75;2.50;;;8.80;82.40;;;;;;6156297;22;88703;-70
2022/01/15 06:31:05;;;;;;;4.70;2.50;;;8.70;82.30;;;;;;6156704;22;92462;-70
2022/01/15 06:33:32;;;;;;;3.65;2.55;;;8.70;82.40;;;;;;6156808;22;88483;-70
2022/01/15 06:35:59;;;;;;;4.07;2.60;;;8.80;82.60;;;;;;6129571;22;89585;-70
2022/01/15 06:38:27;;;;;;;4.22;2.28;;;8.80;82.50;;;;;;6156933;22;88063;-71
2022/01/15 06:40:54;;;;;;;4.10;2.65;;;8.80;82.60;;;;;;6129739;22;101775;-70
2022/01/15 06:43:22;;;;;;;4.13;2.50;;;8.70;82.40;;;;;;6156670;22;88629;-72
2022/01/15 06:45:49;;;;;;;3.95;2.63;;;8.70;82.40;;;;;;6156866;22;88325;-71
2022/01/15 06:48:16;;;;;;;4.15;3.03;;;8.70;82.70;;;;;;6156728;22;88003;-65
2022/01/15 06:50:43;;;;;;;8.65;2.75;;;8.70;82.80;;;;;;6155977;22;91801;-65
2022/01/15 06:53:11;;;;;;;4.80;2.92;;;8.70;82.90;;;;;;6156097;22;89846;-65
2022/01/15 06:55:39;;;;;;;4.07;3.13;;;8.60;83.00;;;;;;6156498;22;89099;-65
2022/01/15 06:58:06;;;;;;;5.47;3.25;;;8.60;83.30;;;;;;6156633;22;87998;-65
2022/01/15 07:00:32;;;;;;;4.75;3.15;;;8.60;83.30;;;;;;6156494;22;89447;-65
2022/01/15 07:03:01;;;;;;;4.70;3.38;;;8.60;83.40;;;;;;6129434;22;91468;-65
2022/01/15 07:05:28;;;;;;;5.60;3.25;;;8.60;83.60;;;;;;6156056;22;90780;-65
2022/01/15 07:07:56;;;;;;;6.43;3.45;;;8.60;83.60;;;;;;6156496;22;88117;-70
2022/01/15 07:10:23;;;;;;;4.20;3.03;;;8.60;83.50;;;;;;6156932;22;88191;-70
2022/01/15 07:12:51;;;;;;;4.28;3.00;;;8.50;83.50;;;;;;6155705;22;87905;-70
2022/01/15 07:15:18;;;;;;;4.57;3.45;;;8.50;84.30;;;;;;6130342;22;88512;-70
2022/01/15 07:17:47;;;;;;;4.07;3.10;;;8.50;84.00;;;;;;6129424;22;88798;-70
2022/01/15 07:20:15;;;;;;;4.28;2.92;;;8.50;84.30;;;;;;6129604;22;89339;-70
2022/01/15 07:22:42;;;;;;;6.72;3.60;;;8.40;84.30;;;;;;6156562;22;88726;-70
2022/01/15 07:25:10;;;;;;;5.35;3.45;;;8.40;84.30;;;;;;6129228;22;88536;-70
2022/01/15 07:27:38;;;;;;;4.45;3.33;;;8.40;84.20;;;;;;6156460;22;87974;-70
2022/01/15 07:30:07;;;;;;;5.07;3.65;;;8.40;84.20;;;;;;6129216;22;89224;-71
2022/01/15 07:32:35;;;;;;;8.60;4.47;;;8.40;84.30;;;;;;6156160;22;88054;-71
2022/01/15 07:35:03;;;;;;;6.13;4.10;;;8.40;84.30;;;;;;6157496;22;88313;-71
2022/01/15 07:37:31;;;;;;;5.28;3.42;;;8.40;84.30;;;;;;6157782;22;87908;-70
2022/01/15 07:39:59;;;;;;;6.93;4.22;;;8.50;84.50;;;;;;6156418;22;103431;-71
2022/01/15 07:42:33;;;;;;;5.20;3.85;;;8.40;84.50;;;;;;6105590;22;90444;-70
2022/01/15 07:45:02;;;;;;;6.57;4.00;;;8.40;84.50;;;;;;6157513;22;89208;-70
2022/01/15 07:47:28;;;;;;;6.47;4.25;;;8.40;84.60;;;;;;6157848;22;88047;-70
2022/01/15 07:49:55;;;;;;;6.05;3.63;;;8.40;84.60;;;;;;6130999;22;88061;-70
2022/01/15 07:52:22;;;;;;;6.28;3.72;;;8.50;84.70;;;;;;6130844;22;91360;-70
2022/01/15 07:54:49;;;;;;;6.07;4.60;;;8.50;84.60;;;;;;6158100;22;88400;-70
2022/01/15 07:57:18;;;;;;;6.70;4.20;;;8.50;84.50;;;;;;6132229;22;88290;-70
2022/01/15 07:59:46;;;;;;;6.25;3.75;;;8.50;84.40;;;;;;6158071;22;88717;-70
2022/01/15 08:02:12;;;;;;;6.25;4.40;;;8.50;84.70;;;;;;6157522;22;88757;-70
2022/01/15 08:04:40;;;;;;;7.25;4.60;;;8.50;84.60;;;;;;6157897;22;88686;-70
2022/01/15 08:07:09;;;;;;;7.95;3.97;;;8.50;84.50;;;;;;6130846;22;88890;-70
2022/01/15 08:09:37;;;;;;;6.63;4.55;;;8.50;84.40;;;;;;6157780;22;88095;-70
2022/01/15 08:12:05;;;;;;;6.88;4.07;;;8.50;84.50;;;;;;6130950;22;88614;-70
2022/01/15 08:14:32;;;;;;;7.22;4.15;;;8.50;84.50;;;;;;6130312;22;90112;-70
2022/01/15 08:16:59;;;;;;;6.07;3.88;;;8.50;84.20;;;;;;6157413;22;87863;-70
2022/01/15 08:19:26;;;;;;;7.43;4.65;;;8.60;84.30;;;;;;6157521;22;88084;-70
2022/01/15 08:21:53;;;;;;;6.93;4.57;;;8.60;84.30;;;;;;6130433;22;89756;-70
2022/01/15 08:24:20;;;;;;;7.65;4.30;;;8.50;83.80;;;;;;6157978;22;88354;-70
2022/01/15 08:26:47;;;;;;;8.52;4.72;;;8.50;83.80;;;;;;6130791;22;88610;-66
2022/01/15 08:29:14;;;;;;;7.50;5.05;;;8.50;83.80;;;;;;6157054;22;88261;-65
2022/01/15 08:31:40;;;;;;;6.28;4.10;;;8.50;83.90;;;;;;6157043;22;88901;-65
2022/01/15 08:34:09;;;;;;;6.97;4.30;;;8.50;84.10;;;;;;6157079;22;89074;-65
2022/01/15 08:36:37;;;;;;;7.88;4.32;;;8.50;84.20;;;;;;6157372;22;88024;-65
2022/01/15 08:39:05;;;;;;;10.07;5.50;;;8.50;84.00;;;;;;6156789;22;87998;-66
2022/01/15 08:41:32;;;;;;;8.40;5.03;;;8.60;84.10;;;;;;6156968;22;90943;-65
2022/01/15 08:43:59;;;;;;;9.27;5.63;;;8.60;83.80;;;;;;6157118;22;88495;-65
2022/01/15 08:46:27;;;;;;;10.45;5.85;;;8.60;83.80;;;;;;6130234;22;88136;-65
2022/01/15 08:48:54;;;;;;;7.80;5.35;;;8.70;84.00;;;;;;6130641;22;89383;-65
2022/01/15 08:51:21;;;;;;;9.35;5.20;;;8.70;83.80;;;;;;6156972;22;88612;-65
2022/01/15 08:53:48;;;;;;;7.35;5.00;;;8.70;83.30;;;;;;6130455;22;89575;-66
2022/01/15 08:56:15;;;;;;;8.18;4.75;;;8.70;82.60;;;;;;6129763;22;88750;-65
2022/01/15 08:58:42;;;;;;;9.90;5.47;;;8.80;82.30;;;;;;6156687;22;103021;-66
2022/01/15 09:01:13;;;;;;;8.98;5.47;;;8.80;82.00;;;;;;6156735;22;88500;-65
2022/01/15 09:03:41;;;;;;;6.07;4.15;;;8.80;81.30;;;;;;6157530;22;88319;-66
2022/01/15 09:06:09;;;;;;;7.18;4.72;;;8.80;81.40;;;;;;6157146;22;88440;-66
2022/01/15 09:08:36;;;;;;;8.10;4.72;;;8.80;80.90;;;;;;6157387;22;88287;-66
2022/01/15 09:11:03;;;;;;;5.60;4.10;;;8.80;80.40;;;;;;6130242;22;90011;-65
2022/01/15 09:13:30;;;;;;;7.13;4.78;;;8.90;80.80;;;;;;6157573;22;88363;-66
2022/01/15 09:15:57;;;;;;;7.15;4.38;;;8.90;80.60;;;;;;6130885;22;87971;-65
2022/01/15 09:18:24;;;;;;;8.50;4.38;;;8.90;80.60;;;;;;6130447;22;88358;-65
2022/01/15 09:20:51;;;;;;;5.63;3.90;;;8.90;80.90;;;;;;6156933;22;89395;-65
2022/01/15 09:23:19;;;;;;;6.75;4.22;;;9.00;80.40;;;;;;6157086;22;89141;-68
2022/01/15 09:25:46;;;;;;;7.10;4.15;;;9.00;80.20;;;;;;6157231;22;87972;-65
2022/01/15 09:30:59;;;;;;;6.70;4.10;;;9.10;79.40;;;;;;6130489;22;89736;-66
2022/01/15 09:33:26;;;;;;;11.07;5.03;;;9.10;79.10;;;;;;6156897;22;88529;-66
2022/01/15 09:35:53;;;;;;;8.02;5.80;;;9.10;78.90;;;;;;6156767;22;102840;-66
2022/01/15 09:38:21;;;;;;;9.90;5.82;;;9.10;78.80;;;;;;6157397;22;88294;-65
2022/01/15 09:40:48;;;;;;;11.30;5.90;;;9.10;79.10;;;;;;6157280;22;88563;-65
2022/01/15 09:43:15;;;;;;;9.45;6.05;;;9.10;78.80;;;;;;6157167;22;88274;-66
2022/01/15 09:45:44;;;;;;;8.68;5.60;;;9.00;79.30;;;;;;6131121;22;88776;-65
2022/01/15 09:48:14;;;;;;;8.27;5.88;;;8.90;79.30;;;;;;6130175;22;89369;-66
2022/01/15 09:50:44;;;;;;;10.52;6.45;;;8.90;79.10;;;;;;6157008;22;88693;-65
2022/01/15 09:53:16;;;;;;;10.57;6.25;;;8.90;79.30;;;;;;6157268;22;88468;-65
2022/01/15 09:55:46;;;;;;;10.40;6.22;;;9.00;79.30;;;;;;6157584;22;87991;-71
2022/01/15 09:58:13;;;;;;;8.20;5.63;;;9.00;78.80;;;;;;6156981;22;88833;-70
2022/01/15 10:00:40;;;;;;;17.17;7.65;;;8.90;78.40;;;;;;6157069;22;88702;-70
2022/01/15 10:03:07;;;;;;;9.02;5.70;;;9.00;79.70;;;;;;6157688;22;88345;-71
2022/01/15 10:05:35;;;;;;;9.73;5.82;;;9.00;79.00;;;;;;6157134;22;88047;-70
2022/01/15 10:08:10;;;;;;;9.38;6.10;;;8.90;79.10;;;;;;6157325;22;88107;-70
2022/01/15 10:10:39;;;;;;;12.55;6.63;;;8.90;78.80;;;;;;6156980;22;89247;-71
2022/01/15 10:13:29;;;;;;;9.30;6.25;;;8.90;80.30;;;;;;6156503;22;89258;-70
2022/01/15 10:15:59;;;;;;;11.95;7.32;;;9.00;78.80;;;;;;6131304;22;88637;-70
2022/01/15 10:18:32;;;;;;;10.90;7.00;;;8.80;78.90;;;;;;6156798;22;88208;-71
2022/01/15 10:21:15;;;;;;;10.73;6.65;;;8.80;79.10;;;;;;6157229;22;88509;-70
2022/01/15 10:24:08;;;;;;;18.75;8.90;;;8.70;79.70;;;;;;6131049;22;88426;-70
2022/01/15 10:26:36;;;;;;;17.38;8.77;;;8.80;80.30;;;;;;6126931;22;88085;-70
2022/01/15 10:29:06;;;;;;;13.88;8.55;;;8.80;80.20;;;;;;6106450;22;89346;-70
2022/01/15 10:31:38;;;;;;;14.10;9.23;;;8.80;79.60;;;;;;6156937;22;89303;-70
2022/01/15 10:34:31;;;;;;;17.40;9.85;;;8.90;79.40;;;;;;6157183;22;88577;-70
2022/01/15 10:37:12;;;;;;;16.73;9.60;;;9.00;79.20;;;;;;6156830;22;88763;-70
2022/01/15 10:39:52;;;;;;;19.70;13.52;;;9.00;79.30;;;;;;6156823;22;88391;-70
2022/01/15 10:42:23;;;;;;;21.38;14.57;;;8.90;78.80;;;;;;6155724;22;88494;-71
2022/01/15 10:44:56;;;;;;;19.92;14.77;;;8.80;79.30;;;;;;6129054;22;90590;-70
2022/01/15 10:47:26;;;;;;;21.20;15.88;;;8.80;78.20;;;;;;6155836;22;89025;-71
2022/01/15 10:49:58;;;;;;;24.30;18.13;;;8.80;79.20;;;;;;6156198;22;88438;-70
2022/01/15 10:52:27;;;;;;;29.98;20.00;;;8.90;78.60;;;;;;6155752;22;88624;-72
2022/01/15 10:55:12;;;;;;;24.48;18.33;;;8.90;79.10;;;;;;6156115;22;89238;-72
2022/01/15 10:57:57;;;;;;;29.40;20.90;;;9.00;78.60;;;;;;6128996;22;89858;-73
2022/01/15 11:00:37;;;;;;;37.88;22.20;;;9.10;78.50;;;;;;6128918;22;89477;-72
2022/01/15 11:03:10;;;;;;;32.63;23.27;;;9.10;78.70;;;;;;6128935;22;90312;-72
2022/01/15 11:05:42;;;;;;;28.20;21.15;;;9.10;78.40;;;;;;6155559;22;89191;-73
2022/01/15 11:08:19;;;;;;;54.72;27.13;;;9.20;78.20;;;;;;6129131;22;88780;-72
2022/01/15 11:10:54;;;;;;;31.58;21.70;;;9.20;78.50;;;;;;6130097;22;89194;-73
2022/01/15 11:13:36;;;;;;;35.15;20.75;;;9.20;78.30;;;;;;6156812;22;89096;-71
2022/01/15 11:16:10;;;;;;;41.60;21.15;;;9.20;78.20;;;;;;6156862;22;94949;-71
2022/01/15 11:18:40;;;;;;;31.67;20.70;;;9.20;78.10;;;;;;6156996;22;88858;-72
2022/01/15 11:21:09;;;;;;;46.38;23.38;;;9.20;78.00;;;;;;6130222;22;90400;-71
2022/01/15 11:23:39;;;;;;;34.03;20.10;;;9.30;78.10;;;;;;6156781;22;88472;-72
2022/01/15 11:26:24;;;;;;;28.38;19.23;;;9.20;77.50;;;;;;6157130;22;88806;-71
2022/01/15 11:28:53;;;;;;;41.08;22.38;;;9.20;77.60;;;;;;6156897;22;88675;-72
2022/01/15 11:31:23;;;;;;;51.45;23.83;;;9.20;77.90;;;;;;6156034;22;105715;-71
2022/01/15 11:33:56;;;;;;;36.85;25.48;;;9.20;77.90;;;;;;6131474;22;91244;-71
2022/01/15 11:36:34;;;;;;;47.75;25.48;;;9.20;78.20;;;;;;6156610;22;91519;-72
2022/01/15 11:39:07;;;;;;;40.22;24.02;;;9.30;78.20;;;;;;6157633;22;88741;-71
2022/01/15 11:41:42;;;;;;;43.83;23.75;;;9.30;78.40;;;;;;6156897;22;88483;-72
2022/01/15 11:44:15;;;;;;;37.95;22.23;;;9.30;77.90;;;;;;6157231;22;88642;-72
2022/01/15 11:46:54;;;;;;;33.08;21.00;;;9.30;78.20;;;;;;6157174;22;89077;-71
2022/01/15 11:49:31;;;;;;;34.00;19.50;;;9.30;78.10;;;;;;6157158;22;88477;-72
2022/01/15 11:52:09;;;;;;;27.50;18.88;;;9.30;77.90;;;;;;6130172;22;88506;-72
2022/01/15 11:54:41;;;;;;;28.65;20.80;;;9.30;78.10;;;;;;6129132;22;90769;-71
2022/01/15 11:57:20;;;;;;;31.90;19.80;;;9.20;78.00;;;;;;6157004;22;88481;-72
2022/01/15 11:59:52;;;;;;;27.08;17.58;;;9.30;78.50;;;;;;6156753;22;88696;-72
2022/01/15 12:02:38;;;;;;;26.23;15.82;;;9.30;78.20;;;;;;6129919;22;89327;-71
2022/01/15 12:05:14;;;;;;;19.95;14.82;;;9.20;78.10;;;;;;6130051;22;89640;-71
2022/01/15 12:07:45;;;;;;;27.23;15.75;;;9.20;78.00;;;;;;6156597;22;89199;-71
2022/01/15 12:10:17;;;;;;;22.30;14.25;;;9.20;79.10;;;;;;6157034;22;88632;-72
2022/01/15 12:12:50;;;;;;;21.25;14.50;;;9.20;78.10;;;;;;6156869;22;92199;-71
2022/01/15 12:15:28;;;;;;;20.60;11.90;;;9.20;78.00;;;;;;6156693;22;93739;-71
2022/01/15 12:18:00;;;;;;;28.92;15.55;;;9.20;77.70;;;;;;6156838;22;89163;-70
2022/01/15 12:20:27;;;;;;;24.25;14.07;;;9.20;77.90;;;;;;6156106;22;88811;-71
2022/01/15 12:22:56;;;;;;;22.33;13.85;;;9.10;77.80;;;;;;6156340;22;101047;-70
2022/01/15 12:25:26;;;;;;;23.92;12.52;;;9.00;78.00;;;;;;6157003;22;88848;-70
2022/01/15 12:27:57;;;;;;;16.75;13.18;;;9.10;78.10;;;;;;6156279;22;89274;-70
2022/01/15 12:30:30;;;;;;;15.88;10.32;;;9.10;78.00;;;;;;6156776;22;88819;-70
2022/01/15 12:33:02;;;;;;;15.10;11.40;;;9.10;77.40;;;;;;6130024;22;89371;-70
2022/01/15 12:35:51;;;;;;;15.23;10.20;;;9.10;77.40;;;;;;6156574;22;88560;-71
2022/01/15 12:38:27;;;;;;;14.85;9.15;;;9.10;77.40;;;;;;6156564;22;89427;-71
2022/01/15 12:41:04;;;;;;;12.60;9.40;;;9.00;77.30;;;;;;6157760;22;89047;-70
2022/01/15 12:43:38;;;;;;;12.25;9.88;;;9.10;77.50;;;;;;6157383;22;88288;-71
2022/01/15 12:46:17;;;;;;;15.70;9.35;;;9.10;77.50;;;;;;6157168;22;89343;-71
2022/01/15 12:48:46;;;;;;;10.77;9.32;;;9.00;77.30;;;;;;6157373;22;89099;-71
2022/01/15 12:51:18;;;;;;;11.18;8.90;;;9.00;77.40;;;;;;6157650;22;87971;-71
2022/01/15 12:53:53;;;;;;;8.82;7.90;;;9.00;77.40;;;;;;6157539;22;88362;-71
2022/01/15 12:56:20;;;;;;;12.23;9.23;;;8.90;76.40;;;;;;6157464;22;89764;-70
2022/01/15 12:58:51;;;;;;;10.23;7.85;;;8.80;76.90;;;;;;6156573;22;104247;-70
2022/01/15 13:01:26;;;;;;;9.88;8.60;;;8.90;77.20;;;;;;6157528;22;88155;-70
2022/01/15 13:03:53;;;;;;;9.60;8.15;;;8.80;77.40;;;;;;6157963;22;88251;-71
2022/01/15 13:06:24;;;;;;;10.63;8.48;;;8.80;77.70;;;;;;6130035;22;104412;-70
2022/01/15 13:08:54;;;;;;;12.07;8.93;;;8.90;77.40;;;;;;6131090;22;88622;-70
2022/01/15 13:11:24;;;;;;;13.10;9.18;;;8.90;77.50;;;;;;6157348;22;88620;-70
2022/01/15 13:14:02;;;;;;;11.68;9.55;;;9.00;77.50;;;;;;6157375;22;88087;-71
2022/01/15 13:16:31;;;;;;;13.43;8.73;;;9.00;77.30;;;;;;6131143;22;89778;-71
2022/01/15 13:19:02;;;;;;;10.23;8.07;;;8.90;77.50;;;;;;6157752;22;87990;-71
2022/01/15 13:21:31;;;;;;;11.45;8.23;;;8.90;77.80;;;;;;6156788;22;88005;-70
2022/01/15 13:24:02;;;;;;;12.70;9.63;;;8.90;77.40;;;;;;6130495;22;88116;-70
2022/01/15 13:26:34;;;;;;;11.27;9.23;;;8.80;78.10;;;;;;6157435;22;88679;-70
2022/01/15 13:29:05;;;;;;;12.23;9.07;;;8.80;78.40;;;;;;6157837;22;88406;-70